Time;durP1;ratioP1;P1;durP2;ratioP2;P2;SDS_P1;SDS_P2;PMS_P1;PMS_P2;Temp;Humidity;BMP_temperature;BMP_pressure;BME280_temperature;BME280_humidity;BME280_pressure;Samples;Min_cycle;Max_cycle;Signal;HPM_P1;HPM_P2
2024/01/23 00:00:44;;;;;;;7.53;5.38;;;;;;;;;;5029962;28;20034;-67
2024/01/23 00:03:10;;;;;;;7.95;5.65;;;;;;;;;;5015002;28;20026;-67
2024/01/23 00:05:35;;;;;;;7.00;4.50;;;;;;;;;;5030346;28;20109;-67
2024/01/23 00:08:01;;;;;;;7.18;5.82;;;;;;;;;;5014844;28;20018;-67
2024/01/23 00:10:26;;;;;;;7.63;5.80;;;;;;;;;;5014608;28;20116;-67
2024/01/23 00:12:51;;;;;;;5.60;4.50;;;;;;;;;;5014763;28;20096;-67
2024/01/23 00:15:18;;;;;;;5.10;4.47;;;;;;;;;;5014902;28;20381;-68
2024/01/23 00:17:43;;;;;;;3.88;3.00;;;;;;;;;;5014426;28;20033;-68
2024/01/23 00:20:09;;;;;;;6.53;4.90;;;;;;;;;;5014740;28;20486;-65
2024/01/23 00:22:36;;;;;;;6.10;5.25;;;;;;;;;;5014971;28;20117;-67
2024/01/23 00:25:01;;;;;;;5.90;4.75;;;;;;;;;;5015193;28;20018;-67
2024/01/23 00:27:26;;;;;;;6.00;4.38;;;;;;;;;;5015140;28;20048;-66
2024/01/23 00:29:52;;;;;;;8.50;5.43;;;;;;;;;;5029505;28;20041;-66
2024/01/23 00:32:17;;;;;;;5.80;5.07;;;;;;;;;;5014949;28;20044;-65
2024/01/23 00:34:43;;;;;;;5.10;4.05;;;;;;;;;;5014976;28;20029;-64
2024/01/23 00:37:09;;;;;;;1.80;1.70;;;;;;;;;;5014268;28;20454;-64
2024/01/23 00:39:38;;;;;;;6.65;5.43;;;;;;;;;;5014611;28;20342;-64
2024/01/23 00:42:07;;;;;;;4.10;3.67;;;;;;;;;;5014379;28;20037;-64
2024/01/23 00:44:33;;;;;;;6.85;5.28;;;;;;;;;;5014200;28;20080;-64
2024/01/23 00:46:58;;;;;;;6.90;5.32;;;;;;;;;;5014316;28;20484;-64
2024/01/23 00:49:24;;;;;;;6.88;5.25;;;;;;;;;;5014005;28;20025;-64
2024/01/23 00:51:49;;;;;;;7.00;5.43;;;;;;;;;;5014141;28;20030;-64
2024/01/23 00:54:14;;;;;;;3.28;2.53;;;;;;;;;;5014119;28;20461;-64
2024/01/23 00:56:43;;;;;;;6.82;4.97;;;;;;;;;;5014527;28;20481;-64
2024/01/23 00:59:10;;;;;;;7.85;5.13;;;;;;;;;;5014584;28;20033;-64
2024/01/23 01:01:36;;;;;;;5.70;4.72;;;;;;;;;;5013922;28;20100;-64
2024/01/23 01:04:02;;;;;;;7.45;5.63;;;;;;;;;;4997062;28;20029;-65
2024/01/23 01:06:27;;;;;;;8.40;4.95;;;;;;;;;;4996174;28;20096;-65
2024/01/23 01:08:52;;;;;;;7.30;5.00;;;;;;;;;;5014049;28;20420;-65
2024/01/23 01:11:18;;;;;;;6.10;5.50;;;;;;;;;;5020203;28;20469;-64
2024/01/23 01:13:43;;;;;;;7.55;4.85;;;;;;;;;;5020814;28;20433;-64
2024/01/23 01:16:08;;;;;;;5.35;4.78;;;;;;;;;;5020322;28;20088;-64
2024/01/23 01:18:36;;;;;;;6.28;4.82;;;;;;;;;;5020595;28;20033;-64
2024/01/23 01:21:02;;;;;;;5.85;4.97;;;;;;;;;;5001737;28;20112;-65
2024/01/23 01:23:28;;;;;;;8.05;5.05;;;;;;;;;;5020427;28;20030;-66
2024/01/23 01:25:54;;;;;;;5.32;4.70;;;;;;;;;;5003073;28;20034;-65
2024/01/23 01:28:20;;;;;;;7.15;4.78;;;;;;;;;;5003090;28;20032;-65
2024/01/23 01:30:45;;;;;;;5.63;4.65;;;;;;;;;;5020443;28;20156;-66
2024/01/23 01:33:11;;;;;;;8.05;5.53;;;;;;;;;;5020590;28;20105;-64
2024/01/23 01:35:36;;;;;;;9.63;5.18;;;;;;;;;;5020316;28;20127;-64
2024/01/23 01:38:01;;;;;;;7.50;5.05;;;;;;;;;;5036162;28;20029;-64
2024/01/23 01:40:27;;;;;;;6.65;5.10;;;;;;;;;;5020431;28;20026;-64
2024/01/23 01:42:53;;;;;;;5.82;4.65;;;;;;;;;;5020025;28;20037;-63
2024/01/23 01:45:18;;;;;;;5.90;5.03;;;;;;;;;;5002439;28;20040;-64
2024/01/23 01:47:43;;;;;;;4.63;4.22;;;;;;;;;;5020437;28;20038;-63
2024/01/23 01:50:09;;;;;;;6.05;4.97;;;;;;;;;;5019976;28;20029;-64
2024/01/23 01:52:36;;;;;;;5.78;4.65;;;;;;;;;;5019895;28;20109;-64
2024/01/23 01:55:01;;;;;;;6.68;5.20;;;;;;;;;;5020403;28;20054;-66
2024/01/23 01:57:33;;;;;;;4.05;3.28;;;;;;;;;;5002671;28;20064;-66
2024/01/23 01:59:58;;;;;;;4.68;4.25;;;;;;;;;;5035225;28;20034;-66
2024/01/23 02:02:24;;;;;;;8.48;5.70;;;;;;;;;;5020488;28;20026;-66
2024/01/23 02:04:49;;;;;;;7.82;5.72;;;;;;;;;;5019432;28;20084;-66
2024/01/23 02:07:15;;;;;;;8.52;5.60;;;;;;;;;;5019513;28;20108;-67
2024/01/23 02:09:40;;;;;;;10.02;6.43;;;;;;;;;;5019767;28;20037;-66
2024/01/23 02:12:07;;;;;;;7.47;5.22;;;;;;;;;;5020435;28;20068;-64
2024/01/23 02:14:33;;;;;;;10.48;6.57;;;;;;;;;;5035340;28;20034;-64
2024/01/23 02:16:58;;;;;;;7.13;5.80;;;;;;;;;;5020444;28;20032;-64
2024/01/23 02:19:25;;;;;;;6.90;5.50;;;;;;;;;;5002772;28;20164;-64
2024/01/23 02:21:50;;;;;;;6.65;5.55;;;;;;;;;;5016945;28;20446;-64
2024/01/23 02:24:15;;;;;;;5.97;5.40;;;;;;;;;;5017093;28;20087;-64
2024/01/23 02:26:41;;;;;;;6.25;5.53;;;;;;;;;;5016924;28;20115;-65
2024/01/23 02:29:06;;;;;;;5.93;5.18;;;;;;;;;;5016876;28;20026;-65
2024/01/23 02:31:32;;;;;;;6.35;5.35;;;;;;;;;;5031648;28;20114;-65
2024/01/23 02:33:57;;;;;;;6.63;4.25;;;;;;;;;;5016656;28;20081;-64
2024/01/23 02:36:22;;;;;;;6.68;5.70;;;;;;;;;;5016481;28;20085;-65
2024/01/23 02:38:48;;;;;;;7.63;5.40;;;;;;;;;;5016808;28;20037;-65
2024/01/23 02:41:13;;;;;;;6.95;5.35;;;;;;;;;;5016202;28;20018;-65
2024/01/23 02:43:38;;;;;;;8.38;5.88;;;;;;;;;;5016826;28;20030;-65
2024/01/23 02:46:04;;;;;;;6.63;4.90;;;;;;;;;;5016647;28;20048;-65
2024/01/23 02:48:29;;;;;;;5.60;3.58;;;;;;;;;;5016471;28;20108;-65
2024/01/23 02:50:55;;;;;;;6.32;5.25;;;;;;;;;;5016350;28;20026;-65
2024/01/23 02:53:20;;;;;;;6.50;5.80;;;;;;;;;;5016417;28;20080;-65
2024/01/23 02:55:45;;;;;;;6.07;5.10;;;;;;;;;;5016399;28;20068;-66
2024/01/23 02:58:11;;;;;;;5.72;5.13;;;;;;;;;;4999043;28;20017;-64
2024/01/23 03:00:39;;;;;;;8.18;6.60;;;;;;;;;;5016381;28;20038;-66
2024/01/23 03:03:06;;;;;;;7.03;5.93;;;;;;;;;;5016129;28;20366;-66
2024/01/23 03:05:31;;;;;;;6.78;5.45;;;;;;;;;;5016315;28;20080;-66
2024/01/23 03:07:57;;;;;;;8.63;6.03;;;;;;;;;;4998972;28;20037;-66
2024/01/23 03:10:22;;;;;;;7.75;5.63;;;;;;;;;;5015759;28;20084;-65
2024/01/23 03:12:47;;;;;;;7.85;5.90;;;;;;;;;;4998503;28;20493;-65
2024/01/23 03:15:13;;;;;;;7.78;5.82;;;;;;;;;;5015691;28;20457;-65
2024/01/23 03:17:38;;;;;;;6.60;5.93;;;;;;;;;;5016134;28;20524;-66
2024/01/23 03:20:04;;;;;;;7.55;5.55;;;;;;;;;;5016126;28;20037;-66
2024/01/23 03:22:29;;;;;;;6.43;5.57;;;;;;;;;;5015430;28;20021;-66
2024/01/23 03:24:55;;;;;;;7.82;5.53;;;;;;;;;;5015466;28;20525;-66
2024/01/23 03:27:21;;;;;;;8.57;5.65;;;;;;;;;;5015866;28;20117;-66
2024/01/23 03:29:47;;;;;;;6.45;5.82;;;;;;;;;;5015793;28;20022;-66
2024/01/23 03:32:13;;;;;;;10.25;7.10;;;;;;;;;;5015151;28;20032;-66
2024/01/23 03:34:39;;;;;;;9.73;6.90;;;;;;;;;;5015389;28;20018;-65
2024/01/23 03:37:04;;;;;;;7.03;5.78;;;;;;;;;;4994248;28;20049;-66
2024/01/23 03:39:30;;;;;;;8.82;7.45;;;;;;;;;;4994779;28;20488;-65
2024/01/23 03:41:56;;;;;;;8.80;7.00;;;;;;;;;;4994157;28;20049;-65
2024/01/23 03:44:22;;;;;;;9.43;7.25;;;;;;;;;;4995983;28;20049;-65
2024/01/23 03:46:49;;;;;;;7.82;6.18;;;;;;;;;;4995945;28;20031;-65
2024/01/23 03:49:14;;;;;;;10.18;7.72;;;;;;;;;;4996197;28;20105;-65
2024/01/23 03:51:41;;;;;;;10.55;8.23;;;;;;;;;;4995968;28;20054;-65
2024/01/23 03:54:06;;;;;;;9.27;7.68;;;;;;;;;;4996047;28;20035;-65
2024/01/23 03:56:32;;;;;;;5.68;4.82;;;;;;;;;;4994458;28;20034;-65
2024/01/23 03:58:58;;;;;;;9.80;6.78;;;;;;;;;;4995472;28;20073;-65
2024/01/23 04:01:23;;;;;;;8.32;7.10;;;;;;;;;;4995537;28;20038;-58
2024/01/23 04:03:48;;;;;;;7.43;6.07;;;;;;;;;;4994512;28;20030;-66
2024/01/23 04:06:14;;;;;;;10.15;6.40;;;;;;;;;;5041105;23;20497;-58
2024/01/23 04:08:40;;;;;;;7.55;6.45;;;;;;;;;;5035277;23;20062;-64
2024/01/23 04:11:05;;;;;;;8.35;6.65;;;;;;;;;;5033492;23;20091;-59
2024/01/23 04:13:31;;;;;;;7.15;6.40;;;;;;;;;;5005806;23;20054;-66
2024/01/23 04:15:56;;;;;;;8.00;6.63;;;;;;;;;;4993711;28;20084;-67
2024/01/23 04:18:22;;;;;;;8.50;6.78;;;;;;;;;;4994961;28;20062;-67
2024/01/23 04:20:47;;;;;;;8.38;6.75;;;;;;;;;;4995144;28;20019;-67
2024/01/23 04:23:14;;;;;;;10.55;7.78;;;;;;;;;;4995150;28;20030;-66
2024/01/23 04:25:39;;;;;;;8.63;7.05;;;;;;;;;;5009755;28;20478;-66
2024/01/23 04:28:05;;;;;;;11.23;8.38;;;;;;;;;;5009810;28;20061;-65
2024/01/23 04:30:30;;;;;;;9.82;7.60;;;;;;;;;;4994688;28;20018;-65
2024/01/23 04:32:56;;;;;;;8.95;7.85;;;;;;;;;;4993979;28;20032;-65
2024/01/23 04:35:22;;;;;;;9.23;7.68;;;;;;;;;;5009656;28;20058;-66
2024/01/23 04:37:47;;;;;;;10.18;8.00;;;;;;;;;;4995134;28;20045;-65
2024/01/23 04:40:13;;;;;;;9.60;7.63;;;;;;;;;;5009355;28;20034;-65
2024/01/23 04:42:39;;;;;;;10.60;8.65;;;;;;;;;;4994814;28;20057;-66
2024/01/23 04:45:04;;;;;;;9.30;7.20;;;;;;;;;;4994434;28;20022;-66
2024/01/23 04:47:30;;;;;;;12.05;10.00;;;;;;;;;;4993875;28;20081;-65
2024/01/23 04:49:55;;;;;;;9.27;7.95;;;;;;;;;;4994721;28;20019;-65
2024/01/23 04:52:20;;;;;;;9.30;7.07;;;;;;;;;;4994682;28;20034;-63
2024/01/23 04:54:46;;;;;;;10.57;8.38;;;;;;;;;;5009510;28;20026;-63
2024/01/23 04:57:13;;;;;;;8.95;6.97;;;;;;;;;;4994654;28;20038;-63
2024/01/23 04:59:39;;;;;;;9.85;7.88;;;;;;;;;;4994906;28;20470;-64
2024/01/23 05:02:05;;;;;;;8.40;7.47;;;;;;;;;;4994320;28;20066;-64
2024/01/23 05:04:30;;;;;;;10.60;8.38;;;;;;;;;;4994308;28;20030;-63
2024/01/23 05:06:55;;;;;;;10.32;7.97;;;;;;;;;;4993133;28;20026;-63
2024/01/23 05:09:21;;;;;;;11.50;9.43;;;;;;;;;;4994061;28;20026;-63
2024/01/23 05:11:46;;;;;;;9.68;8.38;;;;;;;;;;4994733;28;20034;-63
2024/01/23 05:14:12;;;;;;;13.55;10.65;;;;;;;;;;5011164;28;20088;-63
2024/01/23 05:16:37;;;;;;;12.77;9.88;;;;;;;;;;5013797;28;20030;-66
2024/01/23 05:19:03;;;;;;;10.70;8.77;;;;;;;;;;5014031;28;20084;-66
2024/01/23 05:21:28;;;;;;;9.20;7.93;;;;;;;;;;5014254;28;20030;-66
2024/01/23 05:23:53;;;;;;;11.27;8.05;;;;;;;;;;5014226;28;20065;-66
2024/01/23 05:26:20;;;;;;;10.63;8.25;;;;;;;;;;4996051;28;20489;-66
2024/01/23 05:28:45;;;;;;;10.85;8.23;;;;;;;;;;5013920;28;20026;-66
2024/01/23 05:31:10;;;;;;;12.48;9.13;;;;;;;;;;5013969;28;20030;-66
2024/01/23 05:33:36;;;;;;;9.77;8.02;;;;;;;;;;5013684;28;20034;-66
2024/01/23 05:36:01;;;;;;;10.80;8.30;;;;;;;;;;5013454;28;20034;-66
2024/01/23 05:38:26;;;;;;;11.23;9.55;;;;;;;;;;5013814;28;20038;-66
2024/01/23 05:40:52;;;;;;;11.43;8.80;;;;;;;;;;5013192;28;20042;-66
2024/01/23 05:43:17;;;;;;;11.57;9.48;;;;;;;;;;5013979;28;20034;-66
2024/01/23 05:45:44;;;;;;;12.93;10.23;;;;;;;;;;4996414;28;20042;-66
2024/01/23 05:48:09;;;;;;;9.88;8.77;;;;;;;;;;5012516;28;20030;-66
2024/01/23 05:50:34;;;;;;;12.88;9.73;;;;;;;;;;5012399;28;20034;-66
2024/01/23 05:53:00;;;;;;;15.85;11.57;;;;;;;;;;5012029;28;20057;-66
2024/01/23 05:55:26;;;;;;;13.55;9.70;;;;;;;;;;5012391;28;20053;-66
2024/01/23 05:57:51;;;;;;;18.27;12.85;;;;;;;;;;5015337;28;20049;-66
2024/01/23 06:00:17;;;;;;;19.25;13.75;;;;;;;;;;5016142;28;20030;-66
2024/01/23 06:02:42;;;;;;;16.25;11.98;;;;;;;;;;5031371;28;20037;-66
2024/01/23 06:05:08;;;;;;;12.65;10.23;;;;;;;;;;5016012;28;20054;-66
2024/01/23 06:07:38;;;;;;;16.20;12.65;;;;;;;;;;5016745;28;20034;-66
2024/01/23 06:10:04;;;;;;;16.98;12.25;;;;;;;;;;5017162;28;20058;-66
2024/01/23 06:12:29;;;;;;;12.55;9.77;;;;;;;;;;5017289;28;20069;-65
2024/01/23 06:14:55;;;;;;;11.63;9.55;;;;;;;;;;5017158;28;20496;-65
2024/01/23 06:17:20;;;;;;;12.88;9.50;;;;;;;;;;5016859;28;20033;-66
2024/01/23 06:19:45;;;;;;;12.57;9.48;;;;;;;;;;5017017;28;20041;-66
2024/01/23 06:22:11;;;;;;;15.00;10.02;;;;;;;;;;5016989;28;20026;-65
2024/01/23 06:24:36;;;;;;;14.25;10.70;;;;;;;;;;5017187;28;20040;-66
2024/01/23 06:27:02;;;;;;;13.77;10.13;;;;;;;;;;5016520;28;20038;-66
2024/01/23 06:29:27;;;;;;;12.43;9.57;;;;;;;;;;5016898;28;20026;-66
2024/01/23 06:31:53;;;;;;;14.50;11.15;;;;;;;;;;4999185;28;20034;-66
2024/01/23 06:34:20;;;;;;;14.77;10.75;;;;;;;;;;5016772;28;20025;-65
2024/01/23 06:36:47;;;;;;;14.77;10.27;;;;;;;;;;5016632;28;20423;-66
2024/01/23 06:39:12;;;;;;;14.23;11.05;;;;;;;;;;5016817;28;20391;-64
2024/01/23 06:41:38;;;;;;;16.08;12.13;;;;;;;;;;5016633;28;20034;-66
2024/01/23 06:44:03;;;;;;;20.08;14.38;;;;;;;;;;5016370;28;20037;-59
2024/01/23 06:46:28;;;;;;;15.00;11.30;;;;;;;;;;5016667;28;20041;-59
2024/01/23 06:48:54;;;;;;;19.58;13.55;;;;;;;;;;5016153;28;20045;-59
2024/01/23 06:51:20;;;;;;;14.70;10.18;;;;;;;;;;5016499;28;20453;-59
2024/01/23 06:53:45;;;;;;;30.27;17.75;;;;;;;;;;5015580;28;20022;-59
2024/01/23 06:56:11;;;;;;;24.85;16.48;;;;;;;;;;5029735;28;20533;-56
2024/01/23 06:58:36;;;;;;;22.80;15.00;;;;;;;;;;5014967;28;20034;-64
2024/01/23 07:01:01;;;;;;;21.48;13.98;;;;;;;;;;5015187;28;20039;-64
2024/01/23 07:03:28;;;;;;;19.65;14.30;;;;;;;;;;5015024;28;20041;-64
2024/01/23 07:05:54;;;;;;;20.45;14.15;;;;;;;;;;5014899;28;20343;-64
2024/01/23 07:08:20;;;;;;;23.50;14.95;;;;;;;;;;5015022;28;20032;-63
2024/01/23 07:10:46;;;;;;;20.42;14.82;;;;;;;;;;5016059;28;20398;-56
2024/01/23 07:13:11;;;;;;;16.75;13.00;;;;;;;;;;5014659;28;20042;-64
2024/01/23 07:15:36;;;;;;;14.80;11.55;;;;;;;;;;5014779;28;20080;-61
2024/01/23 07:18:02;;;;;;;13.32;9.32;;;;;;;;;;5014332;28;20049;-61
2024/01/23 07:20:28;;;;;;;18.00;12.80;;;;;;;;;;4996716;28;20041;-61
2024/01/23 07:22:53;;;;;;;23.08;15.23;;;;;;;;;;5014820;28;20045;-61
2024/01/23 07:25:20;;;;;;;24.38;17.15;;;;;;;;;;5029607;28;20026;-61
2024/01/23 07:27:45;;;;;;;24.17;16.10;;;;;;;;;;5015535;28;20025;-61
2024/01/23 07:30:10;;;;;;;21.00;14.68;;;;;;;;;;5029821;28;20030;-61
2024/01/23 07:32:36;;;;;;;18.33;12.88;;;;;;;;;;5013729;28;20026;-61
2024/01/23 07:35:02;;;;;;;21.50;14.98;;;;;;;;;;5014523;28;20018;-61
2024/01/23 07:37:27;;;;;;;19.02;12.48;;;;;;;;;;5014427;28;20033;-61
2024/01/23 07:39:52;;;;;;;18.92;13.90;;;;;;;;;;5014342;28;20030;-61
2024/01/23 07:42:18;;;;;;;19.30;13.68;;;;;;;;;;5014360;28;20535;-61
2024/01/23 07:44:43;;;;;;;18.45;13.52;;;;;;;;;;5015901;28;20025;-61
2024/01/23 07:47:08;;;;;;;18.67;13.68;;;;;;;;;;5015614;28;20038;-61
2024/01/23 07:49:34;;;;;;;19.63;14.35;;;;;;;;;;5015034;28;20134;-64
2024/01/23 07:55:35;;;;;;;19.38;13.10;;;;;;;;;;5015275;28;20080;-61
2024/01/23 07:58:00;;;;;;;21.30;14.25;;;;;;;;;;5015202;28;20030;-61
2024/01/23 08:00:26;;;;;;;20.55;14.02;;;;;;;;;;5015058;28;20025;-61
2024/01/23 08:02:54;;;;;;;17.20;12.20;;;;;;;;;;5015093;28;20030;-53
2024/01/23 08:05:20;;;;;;;18.35;12.88;;;;;;;;;;5014964;28;20120;-54
2024/01/23 08:07:45;;;;;;;16.90;11.57;;;;;;;;;;5014727;28;20060;-53
2024/01/23 08:10:11;;;;;;;16.77;12.43;;;;;;;;;;5015239;28;20018;-54
2024/01/23 08:12:36;;;;;;;13.40;10.07;;;;;;;;;;5014908;28;20042;-53
2024/01/23 08:15:02;;;;;;;15.63;11.35;;;;;;;;;;5014875;28;20034;-53
2024/01/23 08:17:27;;;;;;;16.23;11.45;;;;;;;;;;5014824;28;20038;-53
2024/01/23 08:19:53;;;;;;;21.33;13.90;;;;;;;;;;4996221;28;20034;-53
2024/01/23 08:22:18;;;;;;;18.27;12.98;;;;;;;;;;5015021;28;20112;-53
2024/01/23 08:24:45;;;;;;;19.83;13.02;;;;;;;;;;5014424;28;20481;-53
2024/01/23 08:27:11;;;;;;;18.08;13.27;;;;;;;;;;5014355;28;20393;-53
2024/01/23 08:29:36;;;;;;;19.40;12.50;;;;;;;;;;5014629;28;20037;-53
2024/01/23 08:32:03;;;;;;;16.77;11.13;;;;;;;;;;5014588;28;20034;-53
2024/01/23 08:34:29;;;;;;;16.77;12.07;;;;;;;;;;5014294;28;20022;-53
2024/01/23 08:36:54;;;;;;;17.67;13.48;;;;;;;;;;5014506;28;20038;-53
2024/01/23 08:39:19;;;;;;;16.23;12.38;;;;;;;;;;5029421;28;20049;-53
2024/01/23 08:41:45;;;;;;;17.25;12.38;;;;;;;;;;5014178;28;20036;-53
2024/01/23 08:44:10;;;;;;;17.95;12.02;;;;;;;;;;4996914;28;20465;-54
2024/01/23 08:46:36;;;;;;;18.38;12.05;;;;;;;;;;5014571;28;20038;-53
2024/01/23 08:49:01;;;;;;;15.70;10.63;;;;;;;;;;5014673;28;20064;-53
2024/01/23 08:51:28;;;;;;;15.90;11.95;;;;;;;;;;5013319;28;20026;-53
2024/01/23 08:53:54;;;;;;;18.10;13.63;;;;;;;;;;5014007;28;20034;-54
2024/01/23 08:56:23;;;;;;;14.82;9.95;;;;;;;;;;5014278;28;20108;-54
2024/01/23 08:58:49;;;;;;;18.30;13.02;;;;;;;;;;5014258;28;20037;-53
2024/01/23 09:01:14;;;;;;;16.90;11.90;;;;;;;;;;5013914;28;20038;-56
2024/01/23 09:03:40;;;;;;;16.73;12.45;;;;;;;;;;5014435;28;20033;-56
2024/01/23 09:06:05;;;;;;;16.25;11.23;;;;;;;;;;5014323;28;20038;-56
2024/01/23 09:08:30;;;;;;;13.40;9.75;;;;;;;;;;5013843;28;20104;-56
2024/01/23 09:10:57;;;;;;;15.18;11.43;;;;;;;;;;5014087;28;20053;-56
2024/01/23 09:13:22;;;;;;;15.55;10.68;;;;;;;;;;5013597;28;20042;-57
2024/01/23 09:15:47;;;;;;;15.90;10.68;;;;;;;;;;5014317;28;20033;-56
2024/01/23 09:18:13;;;;;;;14.13;9.95;;;;;;;;;;5014285;28;20045;-56
2024/01/23 09:20:38;;;;;;;14.57;10.02;;;;;;;;;;5029270;28;20034;-56
2024/01/23 09:23:05;;;;;;;10.90;7.97;;;;;;;;;;4996111;28;20033;-56
2024/01/23 09:25:30;;;;;;;13.10;8.82;;;;;;;;;;5014077;28;20041;-56
2024/01/23 09:27:56;;;;;;;13.10;9.38;;;;;;;;;;5013983;28;20114;-56
2024/01/23 09:30:21;;;;;;;14.65;8.98;;;;;;;;;;5029355;28;20462;-56
2024/01/23 09:32:47;;;;;;;17.45;10.98;;;;;;;;;;5017701;28;20030;-56
2024/01/23 09:35:15;;;;;;;16.52;10.60;;;;;;;;;;5017820;28;20080;-56
2024/01/23 09:37:40;;;;;;;18.90;10.65;;;;;;;;;;5017783;28;20105;-56
2024/01/23 09:40:08;;;;;;;16.58;10.88;;;;;;;;;;5017542;28;20434;-56
2024/01/23 09:42:36;;;;;;;19.80;13.38;;;;;;;;;;5017611;28;20037;-56
2024/01/23 09:45:07;;;;;;;15.10;10.18;;;;;;;;;;5017347;28;20045;-57
2024/01/23 09:47:33;;;;;;;11.82;8.70;;;;;;;;;;5017428;28;20109;-56
2024/01/23 09:49:59;;;;;;;12.73;8.90;;;;;;;;;;5017381;28;20026;-56
2024/01/23 09:52:25;;;;;;;13.23;9.20;;;;;;;;;;5017532;28;20087;-56
2024/01/23 09:54:50;;;;;;;15.95;9.82;;;;;;;;;;5017688;28;20044;-56
2024/01/23 09:57:16;;;;;;;13.75;8.80;;;;;;;;;;5017403;28;20030;-56
2024/01/23 09:59:41;;;;;;;14.40;9.82;;;;;;;;;;5017322;28;20034;-56
2024/01/23 10:02:08;;;;;;;15.48;9.80;;;;;;;;;;5032431;28;20037;-56
2024/01/23 10:04:35;;;;;;;12.60;9.90;;;;;;;;;;5017268;28;20025;-56
2024/01/23 10:07:09;;;;;;;16.70;11.57;;;;;;;;;;5017473;28;20034;-56
2024/01/23 10:09:35;;;;;;;16.02;10.70;;;;;;;;;;4999339;28;20029;-56
2024/01/23 10:12:00;;;;;;;18.98;12.35;;;;;;;;;;5017128;28;20028;-56
2024/01/23 10:14:27;;;;;;;17.30;11.15;;;;;;;;;;4999059;28;20050;-56
2024/01/23 10:16:52;;;;;;;15.57;10.45;;;;;;;;;;5017060;28;20040;-56
2024/01/23 10:19:18;;;;;;;14.15;9.90;;;;;;;;;;5017325;28;20117;-57
2024/01/23 10:21:43;;;;;;;15.90;11.07;;;;;;;;;;5016710;28;20041;-56
2024/01/23 10:24:09;;;;;;;15.77;9.73;;;;;;;;;;5016945;28;20540;-56
2024/01/23 10:26:34;;;;;;;14.30;9.43;;;;;;;;;;5016537;28;20435;-56
2024/01/23 10:29:00;;;;;;;13.80;9.82;;;;;;;;;;5017127;28;20033;-56
2024/01/23 10:31:26;;;;;;;14.65;9.68;;;;;;;;;;5017104;28;20025;-56
2024/01/23 10:33:52;;;;;;;14.38;10.05;;;;;;;;;;5016488;28;20492;-56
2024/01/23 10:36:17;;;;;;;17.63;12.13;;;;;;;;;;5016440;28;20069;-56
2024/01/23 10:38:43;;;;;;;17.27;10.48;;;;;;;;;;5016977;28;20148;-56
2024/01/23 10:41:11;;;;;;;17.15;11.77;;;;;;;;;;5016924;28;20033;-56
2024/01/23 10:43:37;;;;;;;17.98;11.50;;;;;;;;;;5015720;28;20065;-56
2024/01/23 10:46:03;;;;;;;13.70;9.20;;;;;;;;;;5016487;28;20038;-56
2024/01/23 10:48:32;;;;;;;17.95;10.85;;;;;;;;;;5016526;28;20380;-56
2024/01/23 10:51:03;;;;;;;16.73;10.77;;;;;;;;;;5016181;28;20384;-56
2024/01/23 10:53:34;;;;;;;18.00;10.55;;;;;;;;;;5016420;28;20413;-56
2024/01/23 10:55:59;;;;;;;19.25;11.60;;;;;;;;;;5016072;28;20033;-56
2024/01/23 10:58:31;;;;;;;20.00;12.32;;;;;;;;;;4998445;28;20092;-56
2024/01/23 11:00:59;;;;;;;19.90;12.50;;;;;;;;;;5016523;28;20084;-56
2024/01/23 11:03:25;;;;;;;20.13;12.75;;;;;;;;;;5016220;28;20014;-56
2024/01/23 11:05:57;;;;;;;20.23;12.15;;;;;;;;;;5016093;28;20380;-56
2024/01/23 11:08:26;;;;;;;18.73;11.65;;;;;;;;;;5016109;28;20121;-56
2024/01/23 11:10:57;;;;;;;17.60;9.80;;;;;;;;;;5016112;28;20363;-56
2024/01/23 11:13:32;;;;;;;18.33;11.20;;;;;;;;;;5015557;28;20041;-56
2024/01/23 11:16:02;;;;;;;15.02;10.35;;;;;;;;;;5015714;28;20033;-56
2024/01/23 11:18:28;;;;;;;20.15;11.70;;;;;;;;;;5015956;28;20477;-56
2024/01/23 11:21:08;;;;;;;18.13;11.85;;;;;;;;;;5015579;28;20038;-56
2024/01/23 11:24:00;;;;;;;21.38;11.77;;;;;;;;;;5016085;28;20040;-56
2024/01/23 11:26:26;;;;;;;17.30;11.20;;;;;;;;;;4994114;28;20052;-56
2024/01/23 11:28:53;;;;;;;19.63;12.77;;;;;;;;;;5015670;28;20036;-56
2024/01/23 11:31:19;;;;;;;18.25;11.13;;;;;;;;;;5015708;28;20494;-56
2024/01/23 11:33:45;;;;;;;22.98;13.15;;;;;;;;;;5014297;28;20105;-56
2024/01/23 11:36:14;;;;;;;19.15;11.55;;;;;;;;;;4997521;28;20061;-56
2024/01/23 11:38:43;;;;;;;17.35;11.70;;;;;;;;;;5015564;28;20113;-55
2024/01/23 11:41:12;;;;;;;21.80;11.52;;;;;;;;;;5015496;28;20041;-56
2024/01/23 11:43:37;;;;;;;18.38;11.35;;;;;;;;;;4998310;28;20160;-56
2024/01/23 11:46:03;;;;;;;17.20;10.88;;;;;;;;;;5015639;28;20121;-56
2024/01/23 11:48:28;;;;;;;19.08;11.77;;;;;;;;;;5015023;28;20030;-56
2024/01/23 11:50:55;;;;;;;17.15;10.35;;;;;;;;;;4997499;28;20489;-56
2024/01/23 11:53:21;;;;;;;13.63;10.10;;;;;;;;;;5015214;28;20045;-56
2024/01/23 11:55:47;;;;;;;15.85;10.68;;;;;;;;;;5015218;28;20061;-57
2024/01/23 11:58:12;;;;;;;15.75;10.60;;;;;;;;;;5015478;28;20131;-64
2024/01/23 12:00:38;;;;;;;17.23;10.73;;;;;;;;;;5014800;28;20021;-65
2024/01/23 12:03:08;;;;;;;11.50;7.45;;;;;;;;;;5015378;28;20022;-64
2024/01/23 12:05:35;;;;;;;18.65;11.65;;;;;;;;;;5014322;28;20559;-57
2024/01/23 12:08:01;;;;;;;16.95;9.95;;;;;;;;;;5015001;28;20041;-57
2024/01/23 12:10:27;;;;;;;15.95;10.43;;;;;;;;;;5014980;28;20033;-57
2024/01/23 12:12:55;;;;;;;14.25;9.38;;;;;;;;;;5014724;28;20065;-64
2024/01/23 12:15:21;;;;;;;19.88;12.00;;;;;;;;;;5035112;23;20058;-57
2024/01/23 12:17:49;;;;;;;18.50;11.05;;;;;;;;;;5014577;28;20101;-64
2024/01/23 12:20:14;;;;;;;20.73;12.60;;;;;;;;;;5014539;28;20034;-64
2024/01/23 12:22:40;;;;;;;20.00;12.10;;;;;;;;;;5014834;28;20109;-64
2024/01/23 12:25:06;;;;;;;18.60;10.90;;;;;;;;;;5014735;28;20034;-64
2024/01/23 12:27:32;;;;;;;21.70;12.15;;;;;;;;;;5014932;28;20034;-65
2024/01/23 12:29:58;;;;;;;18.13;10.93;;;;;;;;;;5014680;28;20018;-64
2024/01/23 12:32:27;;;;;;;18.77;11.82;;;;;;;;;;5014607;28;20075;-64
2024/01/23 12:34:52;;;;;;;16.20;10.48;;;;;;;;;;5014595;28;20026;-64
2024/01/23 12:37:18;;;;;;;16.75;10.02;;;;;;;;;;4996676;28;20491;-64
2024/01/23 12:39:43;;;;;;;22.38;12.70;;;;;;;;;;5014212;28;20495;-64
2024/01/23 12:42:09;;;;;;;15.35;10.55;;;;;;;;;;5014449;28;20038;-64
2024/01/23 12:44:35;;;;;;;18.67;12.25;;;;;;;;;;5014113;28;20029;-64
2024/01/23 12:47:05;;;;;;;18.13;11.10;;;;;;;;;;5014363;28;20038;-64
2024/01/23 12:49:35;;;;;;;22.80;12.07;;;;;;;;;;5014142;28;20052;-64
2024/01/23 12:52:01;;;;;;;22.67;11.73;;;;;;;;;;5014345;28;20739;-64
2024/01/23 12:54:26;;;;;;;19.50;12.10;;;;;;;;;;5014600;28;20466;-64
2024/01/23 12:56:51;;;;;;;21.92;12.02;;;;;;;;;;5013982;28;20025;-65
2024/01/23 12:59:19;;;;;;;15.90;9.13;;;;;;;;;;5014198;28;20026;-64
2024/01/23 13:01:45;;;;;;;18.27;11.50;;;;;;;;;;5013870;28;20132;-65
2024/01/23 13:04:11;;;;;;;20.08;11.35;;;;;;;;;;5013896;28;20038;-64
2024/01/23 13:06:36;;;;;;;16.10;9.98;;;;;;;;;;4996113;28;20423;-65
2024/01/23 13:09:02;;;;;;;19.75;11.63;;;;;;;;;;5013849;28;20026;-64
2024/01/23 13:11:27;;;;;;;17.85;10.45;;;;;;;;;;5013835;28;20029;-65
2024/01/23 13:13:53;;;;;;;15.07;8.95;;;;;;;;;;5013814;28;20061;-64
2024/01/23 13:16:19;;;;;;;18.60;11.48;;;;;;;;;;5013762;28;20053;-64
2024/01/23 13:18:45;;;;;;;15.55;9.98;;;;;;;;;;5014027;28;20367;-64
2024/01/23 13:21:11;;;;;;;18.35;10.30;;;;;;;;;;5013720;28;20077;-65
2024/01/23 13:23:36;;;;;;;16.88;10.75;;;;;;;;;;5013700;28;20057;-64
2024/01/23 13:26:03;;;;;;;20.27;12.15;;;;;;;;;;5014156;28;20042;-64
2024/01/23 13:28:28;;;;;;;18.48;11.05;;;;;;;;;;5013702;28;20034;-65
2024/01/23 13:30:55;;;;;;;16.52;9.75;;;;;;;;;;5013616;28;20029;-65
2024/01/23 13:33:21;;;;;;;17.83;11.07;;;;;;;;;;5013912;28;20041;-64
2024/01/23 13:35:46;;;;;;;17.65;11.38;;;;;;;;;;5013584;28;20420;-64
2024/01/23 13:38:12;;;;;;;17.40;10.35;;;;;;;;;;5013838;28;20030;-64
2024/01/23 13:40:38;;;;;;;19.20;12.23;;;;;;;;;;5013534;28;20504;-65
2024/01/23 13:43:03;;;;;;;17.92;10.27;;;;;;;;;;5013832;28;20457;-65
2024/01/23 13:45:29;;;;;;;16.08;10.23;;;;;;;;;;5013452;28;20113;-62
2024/01/23 13:47:55;;;;;;;17.77;10.95;;;;;;;;;;5013484;28;20030;-62
2024/01/23 13:50:20;;;;;;;24.33;13.52;;;;;;;;;;5013433;28;20473;-62
2024/01/23 13:52:49;;;;;;;30.08;14.73;;;;;;;;;;5013411;28;20080;-62
2024/01/23 13:55:15;;;;;;;24.60;12.93;;;;;;;;;;5013412;28;20437;-63
2024/01/23 13:57:40;;;;;;;29.27;15.88;;;;;;;;;;5013417;28;20056;-62
2024/01/23 14:00:06;;;;;;;20.77;11.02;;;;;;;;;;5013309;28;20072;-62
2024/01/23 14:02:39;;;;;;;19.00;11.07;;;;;;;;;;5013398;28;20049;-63
2024/01/23 14:05:05;;;;;;;20.08;11.77;;;;;;;;;;5013355;28;20417;-62
2024/01/23 14:07:34;;;;;;;25.13;14.02;;;;;;;;;;5013260;28;20168;-62
2024/01/23 14:09:59;;;;;;;17.48;10.35;;;;;;;;;;5013556;28;20040;-62
2024/01/23 14:12:25;;;;;;;17.90;9.88;;;;;;;;;;5013558;28;20113;-62
2024/01/23 14:14:50;;;;;;;19.92;9.93;;;;;;;;;;5013573;28;20034;-62
2024/01/23 14:17:15;;;;;;;13.13;9.10;;;;;;;;;;5013444;28;20053;-62
2024/01/23 14:19:41;;;;;;;17.42;10.02;;;;;;;;;;5017040;28;20042;-62
2024/01/23 14:22:10;;;;;;;17.02;10.15;;;;;;;;;;4999323;28;20101;-62
2024/01/23 14:24:36;;;;;;;14.52;9.05;;;;;;;;;;5017286;28;20072;-65